createdAt,value
2022-09-02T00:01:02.724Z,13.16
2022-09-02T00:02:04.983Z,13.14
2022-09-02T00:03:07.443Z,13.14
2022-09-02T00:04:13.081Z,13.13
2022-09-02T00:05:17.372Z,13.14
2022-09-02T00:06:20.558Z,13.14
2022-09-02T00:07:22.603Z,13.13
2022-09-02T00:08:24.842Z,13.10
2022-09-02T00:09:27.453Z,13.10
2022-09-02T00:10:30.838Z,13.10
2022-09-02T00:11:34.538Z,13.11
2022-09-02T00:12:37.205Z,13.10
2022-09-02T00:13:39.440Z,13.09
2022-09-02T00:14:43.570Z,13.10
2022-09-02T00:15:47.059Z,13.08
2022-09-02T00:16:49.445Z,13.08
2022-09-02T00:17:51.741Z,13.05
2022-09-02T00:18:54.146Z,13.05
2022-09-02T00:19:56.379Z,13.05
2022-09-02T00:20:58.970Z,13.05
2022-09-02T00:22:02.883Z,13.06
2022-09-02T00:23:06.815Z,13.03
2022-09-02T00:24:09.635Z,13.02
2022-09-02T00:25:12.193Z,13.02
2022-09-02T00:26:14.888Z,13.00
2022-09-02T00:27:17.072Z,13.01
2022-09-02T00:28:20.276Z,13.00
2022-09-02T00:29:23.498Z,13.01
2022-09-02T00:30:26.836Z,12.99
2022-09-02T00:31:29.116Z,13.01
2022-09-02T00:32:31.543Z,12.99
2022-09-02T00:33:33.931Z,12.98
2022-09-02T00:34:36.637Z,12.97
2022-09-02T00:35:39.048Z,12.96
2022-09-02T00:36:41.301Z,12.95
2022-09-02T00:37:43.425Z,12.96
2022-09-02T00:38:46.472Z,12.92
2022-09-02T00:39:48.577Z,12.92
2022-09-02T00:40:50.843Z,12.93
2022-09-02T00:41:53.304Z,12.90
2022-09-02T00:42:57.243Z,12.88
2022-09-02T00:44:03.286Z,12.89
2022-09-02T00:45:07.868Z,12.87
2022-09-02T00:46:13.183Z,12.86
2022-09-02T00:47:15.841Z,12.85
2022-09-02T00:48:18.422Z,12.83
2022-09-02T00:49:27.101Z,12.81
2022-09-02T00:50:33.145Z,12.78
2022-09-02T00:51:54.565Z,12.78
2022-09-02T00:53:00.313Z,12.76
2022-09-02T00:54:03.956Z,12.72
2022-09-02T00:55:12.489Z,12.69
2022-09-02T00:56:23.255Z,12.68
2022-09-02T00:57:28.993Z,12.68
2022-09-02T00:58:34.560Z,12.65
2022-09-02T00:59:57.095Z,12.60
2022-09-02T01:01:00.411Z,12.59
2022-09-02T01:02:02.742Z,12.59
2022-09-02T01:03:09.427Z,12.59
2022-09-02T01:04:12.205Z,12.58
2022-09-02T01:05:18.456Z,12.57
2022-09-02T01:06:24.121Z,12.56
2022-09-02T01:07:29.699Z,12.56
2022-09-02T01:08:37.075Z,12.54
2022-09-02T01:09:39.603Z,12.55
2022-09-02T01:10:42.838Z,12.55
2022-09-02T01:11:48.123Z,12.52
2022-09-02T01:12:59.154Z,12.51
2022-09-02T01:14:01.487Z,12.50
2022-09-02T01:15:06.223Z,12.50
2022-09-02T01:16:18.528Z,12.50
2022-09-02T01:17:21.691Z,12.49
2022-09-02T01:18:26.792Z,12.49
2022-09-02T01:19:38.136Z,12.48
2022-09-02T01:20:40.441Z,12.46
2022-09-02T01:21:48.410Z,12.45
2022-09-02T01:22:51.871Z,12.45
2022-09-02T01:23:56.163Z,12.45
2022-09-02T01:25:01.965Z,12.46
2022-09-02T01:26:04.508Z,12.45
2022-09-02T01:27:06.703Z,12.45
2022-09-02T01:28:14.259Z,12.44
2022-09-02T01:29:16.453Z,12.44
2022-09-02T01:30:24.074Z,12.45
2022-09-02T01:31:26.323Z,12.44
2022-09-02T01:32:29.296Z,12.44
2022-09-02T01:33:31.796Z,12.44
2022-09-02T01:34:34.288Z,12.44
2022-09-02T01:35:38.524Z,12.44
2022-09-02T01:36:42.079Z,12.45
2022-09-02T01:37:55.702Z,12.44
2022-09-02T01:38:50.068Z,12.45
2022-09-02T01:39:53.597Z,12.46
2022-09-02T01:40:56.613Z,12.46
2022-09-02T01:41:59.457Z,12.44
2022-09-02T01:43:06.897Z,12.44
2022-09-02T01:44:09.481Z,12.42
2022-09-02T01:45:12.237Z,12.36
2022-09-02T01:46:16.408Z,12.32
2022-09-02T01:47:22.476Z,12.20
2022-09-02T01:48:25.342Z,12.20
2022-09-02T01:49:27.755Z,12.20
2022-09-02T01:50:31.358Z,12.14
2022-09-02T01:51:33.812Z,12.07
2022-09-02T01:52:36.331Z,12.02
2022-09-02T01:53:38.491Z,11.98
2022-09-02T01:54:41.510Z,11.90
2022-09-02T01:55:44.372Z,11.86
2022-09-02T01:56:46.958Z,11.81
2022-09-02T01:57:49.005Z,11.76
2022-09-02T01:58:51.072Z,11.70
2022-09-02T01:59:56.364Z,11.57
2022-09-02T02:00:58.659Z,11.54
2022-09-02T02:02:04.075Z,11.54
2022-09-02T02:03:07.752Z,11.55
2022-09-02T02:04:13.322Z,11.48
2022-09-02T02:05:15.569Z,11.46
2022-09-02T02:06:18.776Z,11.38
2022-09-02T02:07:23.768Z,11.34
2022-09-02T02:08:26.463Z,11.33
2022-09-02T02:09:28.629Z,11.26
2022-09-02T02:10:32.785Z,11.12
2022-09-02T02:11:36.029Z,10.90
2022-09-02T02:12:39.816Z,10.82
2022-09-02T02:13:42.110Z,10.79
2022-09-02T02:14:45.310Z,10.79
2022-09-02T02:15:47.517Z,10.75
2022-09-02T02:16:50.858Z,10.78
2022-09-02T02:17:53.209Z,10.78
2022-09-02T02:18:55.556Z,10.75
2022-09-02T02:19:57.724Z,10.79
2022-09-02T02:21:00.271Z,10.86
2022-09-02T02:22:03.455Z,10.91
2022-09-02T02:23:06.317Z,10.96
2022-09-02T02:24:09.126Z,10.99
2022-09-02T02:25:12.816Z,10.98
2022-09-02T02:26:17.308Z,10.96
2022-09-02T02:27:20.061Z,10.97
2022-09-02T02:28:22.359Z,10.96
2022-09-02T02:29:24.982Z,11.00
2022-09-02T02:30:27.635Z,11.06
2022-09-02T02:31:30.153Z,11.09
2022-09-02T02:32:32.737Z,11.11
2022-09-02T02:33:36.245Z,11.17
2022-09-02T02:34:39.335Z,11.17
2022-09-02T02:35:42.636Z,11.21
2022-09-02T02:36:45.359Z,11.24
2022-09-02T02:37:48.106Z,11.28
2022-09-02T02:38:50.260Z,11.34
2022-09-02T02:39:52.987Z,11.35
2022-09-02T02:40:56.897Z,11.39
2022-09-02T02:42:00.001Z,11.41
2022-09-02T02:43:02.152Z,11.42
2022-09-02T02:44:04.728Z,11.42
2022-09-02T02:45:09.141Z,11.44
2022-09-02T02:46:13.796Z,11.42
2022-09-02T02:47:16.824Z,11.42
2022-09-02T02:48:19.517Z,11.46
2022-09-02T02:49:21.686Z,11.47
2022-09-02T02:50:24.819Z,11.48
2022-09-02T02:51:27.737Z,11.45
2022-09-02T02:52:30.893Z,11.40
2022-09-02T02:53:33.330Z,11.41
2022-09-02T02:54:35.676Z,11.35
2022-09-02T02:55:38.327Z,11.33
2022-09-02T02:56:41.266Z,11.18
2022-09-02T02:57:43.950Z,11.03
2022-09-02T02:58:46.196Z,11.00
2022-09-02T02:59:48.884Z,10.92
2022-09-02T03:00:51.633Z,10.94
2022-09-02T03:01:54.923Z,10.89
2022-09-02T03:02:59.495Z,10.90
2022-09-02T03:04:02.369Z,10.96
2022-09-02T03:05:06.761Z,11.07
2022-09-02T03:06:09.738Z,11.13
2022-09-02T03:07:11.888Z,11.20
2022-09-02T03:08:14.748Z,11.27
2022-09-02T03:09:17.828Z,11.32
2022-09-02T03:10:21.030Z,11.36
2022-09-02T03:11:24.065Z,11.41
2022-09-02T03:12:26.235Z,11.46
2022-09-02T03:13:29.463Z,11.49
2022-09-02T03:14:32.318Z,11.51
2022-09-02T03:15:35.776Z,11.54
2022-09-02T03:16:38.157Z,11.57
2022-09-02T03:17:40.217Z,11.58
2022-09-02T03:18:42.183Z,11.55
2022-09-02T03:19:44.532Z,11.49
2022-09-02T03:20:46.978Z,11.51
2022-09-02T03:21:49.155Z,11.58
2022-09-02T03:22:54.601Z,11.60
2022-09-02T03:23:58.296Z,11.57
2022-09-02T03:25:00.984Z,11.60
2022-09-02T03:26:12.085Z,11.59
2022-09-02T03:27:14.270Z,11.60
2022-09-02T03:28:16.710Z,11.61
2022-09-02T03:29:18.957Z,11.64
2022-09-02T03:30:24.975Z,11.66
2022-09-02T03:31:27.550Z,11.71
2022-09-02T03:32:30.612Z,11.71
2022-09-02T03:33:33.799Z,11.73
2022-09-02T03:34:36.392Z,11.76
2022-09-02T03:35:41.428Z,11.78
2022-09-02T03:36:44.363Z,11.78
2022-09-02T03:37:51.370Z,11.77
2022-09-02T03:38:54.315Z,11.80
2022-09-02T03:39:57.121Z,11.74
2022-09-02T03:40:59.485Z,11.60
2022-09-02T03:42:02.213Z,11.52
2022-09-02T03:43:06.554Z,11.53
2022-09-02T03:44:10.016Z,11.50
2022-09-02T03:45:14.312Z,11.49
2022-09-02T03:46:18.789Z,11.56
2022-09-02T03:47:21.917Z,11.55
2022-09-02T03:48:26.470Z,11.41
2022-09-02T03:49:28.626Z,11.39
2022-09-02T03:50:34.825Z,11.34
2022-09-02T03:51:42.970Z,11.34
2022-09-02T03:52:45.556Z,11.44
2022-09-02T03:53:47.808Z,11.53
2022-09-02T03:54:50.555Z,11.59
2022-09-02T03:55:53.301Z,11.65
2022-09-02T03:56:55.947Z,11.65
2022-09-02T03:57:58.901Z,11.69
2022-09-02T03:59:01.528Z,11.75
2022-09-02T04:00:08.773Z,11.80
2022-09-02T04:01:19.656Z,11.83
2022-09-02T04:02:22.185Z,11.85
2022-09-02T04:03:25.053Z,11.79
2022-09-02T04:04:27.560Z,11.82
2022-09-02T04:05:30.022Z,11.86
2022-09-02T04:06:33.660Z,11.88
2022-09-02T04:07:37.331Z,11.90
2022-09-02T04:08:40.612Z,11.94
2022-09-02T04:09:46.623Z,11.96
2022-09-02T04:10:47.474Z,11.98
2022-09-02T04:11:49.708Z,11.89
2022-09-02T04:12:52.438Z,11.90
2022-09-02T04:13:54.882Z,11.92
2022-09-02T04:14:58.765Z,11.96
2022-09-02T04:16:07.451Z,11.98
2022-09-02T04:17:12.116Z,11.97
2022-09-02T04:18:16.259Z,11.98
2022-09-02T04:19:19.451Z,12.01
2022-09-02T04:20:23.120Z,12.04
2022-09-02T04:21:26.295Z,12.09
2022-09-02T04:22:28.440Z,12.13
2022-09-02T04:23:31.176Z,12.15
2022-09-02T04:24:33.820Z,12.19
2022-09-02T04:25:38.845Z,12.21
2022-09-02T04:26:44.892Z,12.26
2022-09-02T04:27:45.926Z,12.27
2022-09-02T04:28:48.981Z,12.28
2022-09-02T04:29:52.189Z,12.24
2022-09-02T04:30:54.982Z,12.21
2022-09-02T04:31:57.358Z,12.24
2022-09-02T04:32:59.427Z,12.27
2022-09-02T04:34:01.963Z,12.30
2022-09-02T04:35:04.953Z,12.29
2022-09-02T04:36:10.151Z,12.33
2022-09-02T04:37:14.722Z,12.35
2022-09-02T04:38:17.750Z,12.39
2022-09-02T04:39:20.237Z,12.38
2022-09-02T04:40:24.384Z,12.43
2022-09-02T04:41:29.612Z,12.48
2022-09-02T04:42:33.912Z,12.52
2022-09-02T04:43:36.714Z,12.55
2022-09-02T04:44:39.290Z,12.58
2022-09-02T04:45:44.856Z,12.58
2022-09-02T04:46:48.453Z,12.53
2022-09-02T04:47:53.371Z,12.54
2022-09-02T04:48:55.718Z,12.44
2022-09-02T04:49:58.233Z,12.40
2022-09-02T04:51:05.643Z,12.36
2022-09-02T04:52:08.444Z,12.29
2022-09-02T04:53:11.477Z,12.33
2022-09-02T04:54:14.438Z,12.36
2022-09-02T04:55:18.187Z,12.36
2022-09-02T04:56:25.061Z,12.37
2022-09-02T04:57:27.363Z,12.38
2022-09-02T04:58:30.990Z,12.41
2022-09-02T04:59:33.099Z,12.41
2022-09-02T05:00:39.199Z,12.39
2022-09-02T05:01:43.973Z,12.45
2022-09-02T05:02:50.084Z,12.49
2022-09-02T05:03:53.609Z,12.54
2022-09-02T05:04:56.059Z,12.60
2022-09-02T05:06:03.075Z,12.51
2022-09-02T05:07:05.272Z,12.55
2022-09-02T05:08:09.722Z,12.57
2022-09-02T05:09:12.068Z,12.56
2022-09-02T05:10:16.494Z,12.55
2022-09-02T05:11:22.169Z,12.62
2022-09-02T05:12:25.062Z,12.68
2022-09-02T05:13:29.112Z,12.74
2022-09-02T05:14:32.310Z,12.82
2022-09-02T05:15:39.736Z,12.91
2022-09-02T05:16:43.178Z,12.96
2022-09-02T05:17:47.571Z,13.02
2022-09-02T05:18:53.674Z,13.05
2022-09-02T05:19:57.565Z,13.00
2022-09-02T05:21:02.236Z,12.94
2022-09-02T05:22:05.434Z,13.00
2022-09-02T05:23:12.402Z,13.06
2022-09-02T05:24:22.148Z,13.12
2022-09-02T05:25:24.562Z,13.16
2022-09-02T05:26:27.588Z,13.21
2022-09-02T05:27:29.971Z,13.22
2022-09-02T05:28:33.771Z,13.24
2022-09-02T05:29:36.708Z,13.21
2022-09-02T05:30:41.718Z,13.11
2022-09-02T05:31:44.583Z,13.08
2022-09-02T05:32:48.242Z,13.03
2022-09-02T05:33:51.418Z,12.92
2022-09-02T05:34:55.402Z,12.92
2022-09-02T05:35:58.087Z,12.96
2022-09-02T05:37:00.602Z,12.98
2022-09-02T05:38:04.221Z,12.90
2022-09-02T05:39:06.661Z,12.95
2022-09-02T05:40:11.479Z,12.89
2022-09-02T05:41:20.408Z,12.87
2022-09-02T05:42:22.766Z,12.92
2022-09-02T05:43:26.598Z,12.94
2022-09-02T05:44:29.782Z,12.94
2022-09-02T05:45:32.796Z,12.93
2022-09-02T05:46:36.304Z,12.93
2022-09-02T05:47:38.716Z,13.07
2022-09-02T05:48:41.556Z,13.07
2022-09-02T05:49:44.043Z,13.07
2022-09-02T05:50:57.287Z,13.10
2022-09-02T05:51:57.795Z,13.16
2022-09-02T05:53:02.902Z,13.16
2022-09-02T05:54:05.246Z,13.20
2022-09-02T05:55:09.158Z,13.25
2022-09-02T05:56:13.696Z,13.29
2022-09-02T05:57:18.247Z,13.31
2022-09-02T05:58:22.338Z,13.29
2022-09-02T05:59:26.508Z,13.31
2022-09-02T06:00:31.430Z,13.34
2022-09-02T06:01:36.688Z,13.42
2022-09-02T06:02:39.018Z,13.47
2022-09-02T06:03:41.939Z,13.44
2022-09-02T06:04:47.362Z,13.49
2022-09-02T06:06:01.702Z,13.53
2022-09-02T06:07:02.225Z,13.52
2022-09-02T06:08:04.136Z,13.59
2022-09-02T06:09:07.531Z,13.65
2022-09-02T06:10:10.155Z,13.74
2022-09-02T06:11:13.224Z,13.77
2022-09-02T06:12:18.602Z,13.79
2022-09-02T06:13:21.138Z,13.79
2022-09-02T06:14:25.945Z,13.84
2022-09-02T06:15:28.541Z,13.82
2022-09-02T06:16:31.091Z,13.84
2022-09-02T06:17:34.818Z,13.86
2022-09-02T06:18:38.188Z,13.92
2022-09-02T06:19:42.312Z,13.87
2022-09-02T06:20:47.373Z,13.89
2022-09-02T06:21:49.996Z,13.92
2022-09-02T06:22:53.569Z,13.99
2022-09-02T06:23:56.033Z,14.05
2022-09-02T06:24:58.262Z,14.03
2022-09-02T06:26:01.491Z,13.95
2022-09-02T06:27:04.809Z,13.87
2022-09-02T06:28:08.014Z,13.86
2022-09-02T06:29:13.004Z,13.86
2022-09-02T06:30:15.671Z,13.88
2022-09-02T06:31:22.293Z,13.97
2022-09-02T06:32:25.041Z,14.11
2022-09-02T06:33:29.067Z,14.18
2022-09-02T06:34:31.547Z,14.30
2022-09-02T06:35:37.081Z,14.29
2022-09-02T06:36:41.277Z,14.28
2022-09-02T06:37:44.215Z,14.27
2022-09-02T06:38:49.565Z,14.30
2022-09-02T06:39:51.897Z,14.27
2022-09-02T06:40:57.693Z,14.19
2022-09-02T06:42:04.373Z,14.22
2022-09-02T06:43:08.397Z,14.24
2022-09-02T06:44:15.160Z,14.28
2022-09-02T06:45:18.773Z,14.26
2022-09-02T06:46:24.705Z,14.30
2022-09-02T06:47:28.948Z,14.35
2022-09-02T06:48:31.655Z,14.35
2022-09-02T06:49:33.902Z,14.36
2022-09-02T06:50:41.863Z,14.32
2022-09-02T06:51:48.141Z,14.38
2022-09-02T06:52:50.940Z,14.43
2022-09-02T06:53:53.850Z,14.44
2022-09-02T06:54:56.826Z,14.37
2022-09-02T06:55:58.925Z,14.33
2022-09-02T06:57:02.110Z,14.33
2022-09-02T06:58:05.258Z,14.37
2022-09-02T06:59:08.204Z,14.44
2022-09-02T07:00:19.640Z,14.50
2022-09-02T07:01:25.422Z,14.53
2022-09-02T07:02:29.054Z,14.60
2022-09-02T07:03:31.290Z,14.60
2022-09-02T07:04:35.779Z,14.58
2022-09-02T07:05:39.699Z,14.58
2022-09-02T07:06:48.127Z,14.63
2022-09-02T07:07:51.626Z,14.61
2022-09-02T07:08:53.714Z,14.64
2022-09-02T07:09:57.750Z,14.60
2022-09-02T07:11:01.596Z,14.61
2022-09-02T07:12:05.969Z,14.62
2022-09-02T07:13:10.055Z,14.62
2022-09-02T07:14:12.821Z,14.64
2022-09-02T07:15:15.362Z,14.68
2022-09-02T07:16:22.755Z,14.73
2022-09-02T07:17:23.901Z,14.78
2022-09-02T07:18:28.836Z,14.80
2022-09-02T07:19:31.397Z,14.84
2022-09-02T07:20:34.166Z,14.80
2022-09-02T07:21:42.168Z,14.88
2022-09-02T07:22:45.003Z,14.97
2022-09-02T07:23:49.071Z,15.05
2022-09-02T07:24:53.676Z,15.14
2022-09-02T07:25:56.118Z,15.00
2022-09-02T07:26:58.416Z,15.00
2022-09-02T07:28:01.557Z,15.00
2022-09-02T07:29:07.900Z,15.07
2022-09-02T07:30:11.932Z,15.17
2022-09-02T07:31:16.343Z,15.27
2022-09-02T07:32:18.807Z,15.36
2022-09-02T07:33:22.600Z,15.42
2022-09-02T07:34:25.548Z,15.45
2022-09-02T07:35:29.743Z,15.30
2022-09-02T07:36:34.740Z,15.30
2022-09-02T07:37:38.076Z,15.38
2022-09-02T07:38:42.531Z,15.35
2022-09-02T07:39:44.659Z,15.34
2022-09-02T07:40:48.019Z,15.42
2022-09-02T07:41:51.979Z,15.39
2022-09-02T07:42:58.647Z,15.42
2022-09-02T07:44:00.250Z,15.40
2022-09-02T07:45:03.804Z,15.45
2022-09-02T07:46:08.309Z,15.58
2022-09-02T07:47:11.692Z,15.57
2022-09-02T07:48:14.951Z,15.54
2022-09-02T07:49:22.061Z,15.56
2022-09-02T07:50:26.834Z,15.66
2022-09-02T07:51:30.795Z,15.74
2022-09-02T07:52:35.243Z,15.77
2022-09-02T07:53:37.750Z,15.77
2022-09-02T07:54:39.840Z,15.84
2022-09-02T07:55:43.966Z,15.86
2022-09-02T07:56:46.304Z,15.93
2022-09-02T07:57:52.387Z,16.06
2022-09-02T07:58:54.980Z,16.06
2022-09-02T07:59:57.370Z,16.17
2022-09-02T08:01:02.501Z,16.25
2022-09-02T08:02:04.962Z,16.29
2022-09-02T08:03:11.145Z,16.37
2022-09-02T08:04:16.981Z,16.49
2022-09-02T08:05:21.736Z,16.38
2022-09-02T08:06:33.664Z,16.34
2022-09-02T08:07:28.962Z,16.55
2022-09-02T08:08:31.267Z,16.48
2022-09-02T08:09:33.184Z,16.51
2022-09-02T08:10:36.821Z,16.44
2022-09-02T08:11:43.327Z,16.46
2022-09-02T08:12:48.129Z,16.63
2022-09-02T08:13:50.835Z,16.64
2022-09-02T08:14:53.086Z,16.77
2022-09-02T08:15:56.356Z,16.94
2022-09-02T08:16:59.625Z,17.06
2022-09-02T08:18:04.103Z,16.98
2022-09-02T08:19:07.890Z,16.77
2022-09-02T08:20:14.026Z,16.73
2022-09-02T08:21:16.672Z,16.76
2022-09-02T08:22:18.761Z,16.72
2022-09-02T08:23:35.980Z,16.82
2022-09-02T08:24:25.309Z,16.87
2022-09-02T08:25:27.397Z,16.87
2022-09-02T08:26:29.559Z,16.75
2022-09-02T08:27:31.961Z,16.74
2022-09-02T08:28:33.999Z,16.60
2022-09-02T08:29:36.174Z,16.51
2022-09-02T08:30:39.470Z,16.64
2022-09-02T08:31:44.166Z,16.67
2022-09-02T08:32:46.158Z,16.60
2022-09-02T08:33:48.520Z,16.47
2022-09-02T08:34:51.291Z,16.52
2022-09-02T08:35:53.362Z,16.62
2022-09-02T08:36:57.240Z,16.62
2022-09-02T08:38:01.821Z,16.52
2022-09-02T08:39:04.307Z,16.53
2022-09-02T08:40:11.204Z,16.38
2022-09-02T08:41:17.023Z,16.39
2022-09-02T08:42:31.111Z,16.35
2022-09-02T08:43:42.997Z,16.40
2022-09-02T08:44:45.768Z,16.41
2022-09-02T08:45:50.999Z,16.51
2022-09-02T08:46:56.895Z,16.35
2022-09-02T08:48:08.785Z,16.37
2022-09-02T08:49:17.284Z,16.42
2022-09-02T08:50:22.532Z,16.37
2022-09-02T08:51:37.573Z,16.30
2022-09-02T08:52:56.457Z,16.43
2022-09-02T08:54:10.954Z,16.43
2022-09-02T08:55:20.669Z,16.40
2022-09-02T08:56:23.437Z,16.56
2022-09-02T08:57:26.620Z,16.73
2022-09-02T08:58:34.981Z,16.71
2022-09-02T08:59:37.888Z,16.71
2022-09-02T09:00:43.943Z,16.91
2022-09-02T09:01:52.411Z,16.91
2022-09-02T09:03:10.608Z,16.94
2022-09-02T09:04:22.038Z,17.00
2022-09-02T09:05:30.853Z,17.05
2022-09-02T09:06:52.197Z,17.18
2022-09-02T09:08:15.791Z,17.32
2022-09-02T09:09:40.232Z,17.40
2022-09-02T09:11:04.343Z,17.25
2022-09-02T09:12:33.055Z,17.37
2022-09-02T09:14:08.574Z,17.36
2022-09-02T09:15:48.665Z,17.43
2022-09-02T09:17:00.108Z,17.33
2022-09-02T09:18:06.031Z,17.03
2022-09-02T09:19:23.389Z,16.87
2022-09-02T09:20:35.459Z,16.88
2022-09-02T09:21:38.729Z,16.82
2022-09-02T09:22:42.808Z,16.67
2022-09-02T09:23:46.934Z,16.60
2022-09-02T09:24:50.127Z,16.64
2022-09-02T09:25:59.596Z,16.68
2022-09-02T09:27:05.063Z,16.68
2022-09-02T09:28:07.151Z,16.75
2022-09-02T09:29:12.166Z,16.88
2022-09-02T09:30:15.773Z,16.95
2022-09-02T09:31:21.080Z,16.92
2022-09-02T09:32:29.542Z,17.02
2022-09-02T09:33:31.758Z,17.06
2022-09-02T09:34:56.508Z,17.01
2022-09-02T09:35:58.615Z,17.03
2022-09-02T09:37:00.989Z,17.08
2022-09-02T09:38:06.592Z,17.03
2022-09-02T09:39:28.163Z,16.84
2022-09-02T09:40:32.047Z,16.92
2022-09-02T09:41:36.662Z,17.01
2022-09-02T09:42:39.194Z,17.01
2022-09-02T09:43:43.229Z,16.92
2022-09-02T09:44:47.433Z,16.77
2022-09-02T09:45:51.388Z,16.83
2022-09-02T09:47:01.130Z,16.96
2022-09-02T09:48:24.966Z,17.06
2022-09-02T09:49:27.763Z,17.01
2022-09-02T09:50:30.110Z,16.90
2022-09-02T09:51:50.287Z,16.93
2022-09-02T09:52:37.373Z,17.00
2022-09-02T09:53:40.035Z,17.02
2022-09-02T09:54:43.752Z,17.07
2022-09-02T09:56:09.588Z,17.06
2022-09-02T09:57:18.212Z,17.16
2022-09-02T09:58:26.157Z,17.31
2022-09-02T09:59:40.692Z,17.41
2022-09-02T10:00:44.113Z,17.31
2022-09-02T10:01:51.205Z,17.34
2022-09-02T10:02:56.289Z,17.40
2022-09-02T10:04:42.218Z,17.57
2022-09-02T10:05:35.004Z,17.59
2022-09-02T10:06:43.007Z,17.59
2022-09-02T10:07:48.730Z,17.58
2022-09-02T10:08:54.486Z,17.64
2022-09-02T10:10:00.630Z,17.60
2022-09-02T10:11:09.322Z,17.56
2022-09-02T10:12:12.905Z,17.55
2022-09-02T10:13:21.813Z,17.67
2022-09-02T10:14:29.766Z,17.54
2022-09-02T10:15:39.622Z,17.50
2022-09-02T10:16:57.585Z,17.53
2022-09-02T10:18:21.136Z,17.47
2022-09-02T10:19:33.761Z,17.50
2022-09-02T10:21:16.697Z,17.55
2022-09-02T10:22:59.991Z,17.62
2022-09-02T10:23:50.327Z,17.62
2022-09-02T10:25:02.260Z,17.63
2022-09-02T10:26:15.648Z,17.75
2022-09-02T10:27:21.356Z,17.77
2022-09-02T10:28:33.087Z,17.60
2022-09-02T10:29:55.547Z,17.66
2022-09-02T10:31:10.835Z,17.64
2022-09-02T10:32:17.074Z,17.62
2022-09-02T10:33:23.101Z,17.48
2022-09-02T10:34:54.933Z,17.37
2022-09-02T10:36:06.450Z,17.31
2022-09-02T10:37:23.659Z,17.48
2022-09-02T10:38:33.191Z,17.50
2022-09-02T10:39:57.013Z,17.64
2022-09-02T10:41:03.915Z,17.75
2022-09-02T10:42:24.887Z,17.74
2022-09-02T10:43:30.520Z,17.72
2022-09-02T10:44:46.543Z,17.78
2022-09-02T10:45:52.295Z,17.76
2022-09-02T10:46:58.099Z,17.82
2022-09-02T10:48:09.282Z,17.85
2022-09-02T10:49:33.316Z,17.73
2022-09-02T10:50:50.138Z,17.97
2022-09-02T10:52:11.528Z,18.08
2022-09-02T10:53:43.269Z,17.88
2022-09-02T10:55:15.102Z,17.86
2022-09-02T10:56:31.139Z,18.03
2022-09-02T10:57:37.196Z,18.17
2022-09-02T10:58:47.600Z,18.06
2022-09-02T11:00:09.343Z,18.14
2022-09-02T11:01:21.148Z,18.27
2022-09-02T11:02:33.165Z,18.42
2022-09-02T11:03:53.964Z,18.61
2022-09-02T11:05:18.813Z,18.67
2022-09-02T11:06:31.682Z,18.65
2022-09-02T11:07:57.088Z,18.80
2022-09-02T11:09:23.186Z,18.93
2022-09-02T11:10:46.721Z,18.96
2022-09-02T11:11:58.265Z,18.93
2022-09-02T11:13:21.446Z,18.89
2022-09-02T11:14:30.173Z,19.03
2022-09-02T11:16:04.939Z,19.14
2022-09-02T11:17:32.059Z,18.74
2022-09-02T11:18:49.982Z,18.53
2022-09-02T11:20:05.822Z,18.31
2022-09-02T11:21:36.838Z,18.47
2022-09-02T11:22:54.291Z,18.67
2022-09-02T11:24:02.531Z,18.48
2022-09-02T11:25:14.261Z,18.48
2022-09-02T11:26:38.959Z,18.35
2022-09-02T11:27:49.180Z,18.46
2022-09-02T11:29:00.958Z,18.67
2022-09-02T11:30:10.143Z,18.87
2022-09-02T11:31:35.730Z,18.91
2022-09-02T11:32:44.334Z,19.14
2022-09-02T11:35:07.823Z,19.18
2022-09-02T11:36:11.543Z,19.24
2022-09-02T11:37:35.833Z,19.33
2022-09-02T11:39:00.395Z,19.44
2022-09-02T11:40:30.363Z,19.59
2022-09-02T11:41:38.443Z,19.59
2022-09-02T11:42:33.725Z,19.56
2022-09-02T11:43:48.778Z,19.79
2022-09-02T11:45:01.467Z,19.99
2022-09-02T11:46:14.067Z,20.03
2022-09-02T11:47:28.096Z,20.04
2022-09-02T11:49:02.812Z,19.75
2022-09-02T11:50:24.119Z,19.39
2022-09-02T11:51:44.926Z,19.15
2022-09-02T11:52:59.870Z,19.03
2022-09-02T11:54:04.800Z,18.97
2022-09-02T11:55:17.144Z,19.01
2022-09-02T11:56:41.583Z,19.25
2022-09-02T11:57:53.229Z,19.48
2022-09-02T11:58:55.521Z,19.89
2022-09-02T12:00:01.153Z,19.99
2022-09-02T12:01:15.902Z,20.22
2022-09-02T12:02:44.578Z,20.22
2022-09-02T12:04:16.169Z,20.57
2022-09-02T12:05:14.548Z,20.61
2022-09-02T12:06:21.222Z,20.73
2022-09-02T12:07:26.437Z,21.02
2022-09-02T12:08:35.660Z,21.31
2022-09-02T12:09:48.211Z,21.37
2022-09-02T12:10:53.988Z,20.83
2022-09-02T12:11:56.088Z,20.93
2022-09-02T12:13:01.675Z,21.03
2022-09-02T12:14:26.901Z,20.72
2022-09-02T12:15:30.869Z,20.62
2022-09-02T12:16:42.332Z,20.41
2022-09-02T12:17:50.645Z,20.23
2022-09-02T12:18:57.635Z,20.01
2022-09-02T12:19:59.733Z,20.17
2022-09-02T12:21:06.097Z,20.49
2022-09-02T12:22:20.683Z,20.72
2022-09-02T12:23:52.379Z,20.95
2022-09-02T12:24:57.133Z,21.22
2022-09-02T12:26:02.035Z,21.23
2022-09-02T12:27:07.708Z,21.19
2022-09-02T12:28:26.071Z,21.41
2022-09-02T12:29:31.979Z,21.79
2022-09-02T12:30:59.062Z,22.10
2022-09-02T12:32:02.183Z,21.66
2022-09-02T12:33:12.370Z,21.47
2022-09-02T12:34:25.122Z,21.09
2022-09-02T12:35:37.431Z,20.78
2022-09-02T12:36:45.793Z,20.69
2022-09-02T12:37:56.930Z,20.56
2022-09-02T12:39:26.287Z,20.17
2022-09-02T12:40:33.801Z,20.01
2022-09-02T12:41:39.526Z,20.48
2022-09-02T12:42:48.343Z,20.76
2022-09-02T12:43:58.435Z,21.09
2022-09-02T12:45:13.250Z,21.27
2022-09-02T12:46:28.701Z,21.04
2022-09-02T12:47:52.917Z,21.27
2022-09-02T12:49:10.967Z,21.60
2022-09-02T12:50:52.179Z,21.98
2022-09-02T12:51:57.822Z,22.40
2022-09-02T12:53:25.101Z,22.66
2022-09-02T12:54:43.101Z,22.44
2022-09-02T12:55:59.122Z,22.04
2022-09-02T12:57:02.598Z,21.70
2022-09-02T12:58:12.864Z,21.33
2022-09-02T12:59:30.646Z,21.67
2022-09-02T13:00:40.194Z,22.02
2022-09-02T13:02:01.054Z,22.03
2022-09-02T13:03:19.027Z,22.15
2022-09-02T13:04:58.633Z,22.29
2022-09-02T13:06:33.490Z,22.74
2022-09-02T13:07:42.140Z,23.27
2022-09-02T13:08:54.489Z,22.91
2022-09-02T13:10:23.118Z,23.05
2022-09-02T13:11:38.285Z,23.25
2022-09-02T13:13:12.429Z,23.48
2022-09-02T13:14:27.012Z,23.58
2022-09-02T13:16:04.585Z,23.00
2022-09-02T13:17:36.209Z,22.44
2022-09-02T13:20:13.229Z,21.76
2022-09-02T13:21:45.960Z,21.38
2022-09-02T13:22:54.444Z,21.01
2022-09-02T13:24:01.443Z,21.03
2022-09-02T13:25:31.445Z,21.04
2022-09-02T13:26:53.378Z,20.88
2022-09-02T13:28:17.680Z,21.15
2022-09-02T13:29:39.676Z,21.37
2022-09-02T13:30:54.857Z,21.58
2022-09-02T13:32:16.314Z,22.00
2022-09-02T13:33:18.948Z,22.38
2022-09-02T13:34:22.524Z,22.66
2022-09-02T13:35:27.244Z,22.47
2022-09-02T13:36:33.114Z,22.47
2022-09-02T13:37:38.342Z,22.69
2022-09-02T13:38:40.569Z,22.93
2022-09-02T13:39:42.764Z,23.05
2022-09-02T13:40:46.284Z,23.07
2022-09-02T13:41:49.073Z,23.05
2022-09-02T13:42:54.348Z,23.28
2022-09-02T13:44:12.897Z,23.53
2022-09-02T13:45:18.681Z,23.69
2022-09-02T13:46:22.674Z,23.36
2022-09-02T13:47:27.406Z,23.54
2022-09-02T13:48:34.787Z,23.01
2022-09-02T13:49:40.491Z,23.13
2022-09-02T13:50:45.720Z,23.41
2022-09-02T13:51:50.320Z,23.70
2022-09-02T13:55:05.858Z,24.09
2022-09-02T13:56:11.573Z,24.38
2022-09-02T13:57:17.277Z,24.51
2022-09-02T13:58:32.241Z,24.71
2022-09-02T13:59:37.977Z,24.75
2022-09-02T14:00:41.119Z,24.80
2022-09-02T14:01:43.596Z,24.75
2022-09-02T14:02:59.673Z,24.65
2022-09-02T14:05:17.036Z,24.27
2022-09-02T14:06:24.882Z,23.94
2022-09-02T14:07:39.002Z,24.10
2022-09-02T14:08:41.720Z,24.19
2022-09-02T14:09:45.340Z,23.99
2022-09-02T14:10:50.389Z,23.95
2022-09-02T14:11:54.410Z,23.72
2022-09-02T14:12:58.229Z,23.57
2022-09-02T14:14:00.543Z,23.39
2022-09-02T14:15:05.045Z,23.17
2022-09-02T14:17:38.951Z,23.56
2022-09-02T14:18:45.661Z,23.14
2022-09-02T14:19:50.724Z,22.93
2022-09-02T14:21:19.062Z,23.12
2022-09-02T14:22:28.050Z,22.90
2022-09-02T14:23:32.258Z,22.85
2022-09-02T14:24:39.886Z,22.94
2022-09-02T14:25:52.753Z,22.95
2022-09-02T14:26:58.992Z,22.83
2022-09-02T14:28:05.571Z,22.91
2022-09-02T14:29:10.556Z,23.03
2022-09-02T14:30:14.916Z,23.37
2022-09-02T14:31:28.902Z,23.62